sensor_id;sensor_type;location;lat;lon;timestamp;P1;durP1;ratioP1;P2;durP2;ratioP2
1164;SDS011;571;50.930;6.926;2023-05-24T02:47:47;10.30;;;4.53;;
1164;SDS011;571;50.930;6.926;2023-05-24T02:50:24;9.13;;;3.10;;
1164;SDS011;571;50.930;6.926;2023-05-24T02:53:22;7.23;;;3.40;;
1164;SDS011;571;50.930;6.926;2023-05-24T02:55:59;9.43;;;4.00;;
1164;SDS011;571;50.930;6.926;2023-05-24T02:58:34;14.23;;;3.77;;
1164;SDS011;571;50.930;6.926;2023-05-24T03:01:25;10.37;;;4.10;;
1164;SDS011;571;50.930;6.926;2023-05-24T03:04:09;6.00;;;3.20;;
1164;SDS011;571;50.930;6.926;2023-05-24T03:06:43;8.70;;;3.40;;
1164;SDS011;571;50.930;6.926;2023-05-24T03:09:17;7.63;;;3.37;;
1164;SDS011;571;50.930;6.926;2023-05-24T03:12:12;10.27;;;3.60;;
1164;SDS011;571;50.930;6.926;2023-05-24T03:14:45;7.43;;;3.80;;
1164;SDS011;571;50.930;6.926;2023-05-24T03:17:19;6.67;;;3.47;;
1164;SDS011;571;50.930;6.926;2023-05-24T03:19:54;14.30;;;3.77;;
1164;SDS011;571;50.930;6.926;2023-05-24T03:22:25;8.40;;;3.60;;
1164;SDS011;571;50.930;6.926;2023-05-24T03:24:58;6.37;;;3.53;;
1164;SDS011;571;50.930;6.926;2023-05-24T03:27:26;8.67;;;3.13;;
1164;SDS011;571;50.930;6.926;2023-05-24T03:30:03;8.13;;;3.27;;
1164;SDS011;571;50.930;6.926;2023-05-24T03:32:58;6.00;;;2.93;;
1164;SDS011;571;50.930;6.926;2023-05-24T03:35:39;9.83;;;3.70;;
1164;SDS011;571;50.930;6.926;2023-05-24T03:38:17;5.47;;;3.53;;
1164;SDS011;571;50.930;6.926;2023-05-24T03:40:48;10.50;;;3.73;;
1164;SDS011;571;50.930;6.926;2023-05-24T03:43:23;10.20;;;4.33;;
1164;SDS011;571;50.930;6.926;2023-05-24T03:45:59;8.73;;;4.07;;
1164;SDS011;571;50.930;6.926;2023-05-24T03:48:47;11.07;;;3.63;;
1164;SDS011;571;50.930;6.926;2023-05-24T03:51:37;9.70;;;4.10;;
1164;SDS011;571;50.930;6.926;2023-05-24T03:54:18;7.57;;;3.50;;
1164;SDS011;571;50.930;6.926;2023-05-24T03:56:47;8.27;;;4.00;;
1164;SDS011;571;50.930;6.926;2023-05-24T03:59:23;8.97;;;3.97;;
1164;SDS011;571;50.930;6.926;2023-05-24T04:01:50;16.07;;;4.50;;
1164;SDS011;571;50.930;6.926;2023-05-24T04:04:34;7.73;;;4.63;;
1164;SDS011;571;50.930;6.926;2023-05-24T04:07:27;12.57;;;4.00;;
1164;SDS011;571;50.930;6.926;2023-05-24T04:10:09;13.00;;;4.07;;
1164;SDS011;571;50.930;6.926;2023-05-24T04:12:49;11.17;;;4.60;;
1164;SDS011;571;50.930;6.926;2023-05-24T04:15:37;8.27;;;4.60;;
1164;SDS011;571;50.930;6.926;2023-05-24T04:18:20;10.67;;;4.03;;
1164;SDS011;571;50.930;6.926;2023-05-24T04:21:03;13.40;;;4.63;;
1164;SDS011;571;50.930;6.926;2023-05-24T04:23:58;7.43;;;3.43;;
1164;SDS011;571;50.930;6.926;2023-05-24T04:26:56;15.80;;;4.83;;
1164;SDS011;571;50.930;6.926;2023-05-24T04:29:32;8.73;;;3.53;;
1164;SDS011;571;50.930;6.926;2023-05-24T04:32:03;17.10;;;5.07;;
1164;SDS011;571;50.930;6.926;2023-05-24T04:34:51;11.50;;;4.50;;
1164;SDS011;571;50.930;6.926;2023-05-24T04:37:29;13.87;;;4.47;;
1164;SDS011;571;50.930;6.926;2023-05-24T04:40:17;7.20;;;4.50;;
1164;SDS011;571;50.930;6.926;2023-05-24T04:43:00;15.53;;;4.57;;
1164;SDS011;571;50.930;6.926;2023-05-24T04:48:56;9.10;;;4.80;;
1164;SDS011;571;50.930;6.926;2023-05-24T04:51:50;6.67;;;3.90;;
1164;SDS011;571;50.930;6.926;2023-05-24T04:54:20;11.50;;;4.00;;
1164;SDS011;571;50.930;6.926;2023-05-24T04:56:53;14.10;;;5.33;;
1164;SDS011;571;50.930;6.926;2023-05-24T04:59:24;7.40;;;3.87;;
1164;SDS011;571;50.930;6.926;2023-05-24T05:02:01;15.67;;;5.10;;
1164;SDS011;571;50.930;6.926;2023-05-24T05:04:33;8.50;;;4.87;;
1164;SDS011;571;50.930;6.926;2023-05-24T05:07:22;11.67;;;4.77;;
1164;SDS011;571;50.930;6.926;2023-05-24T05:10:03;14.27;;;4.90;;
1164;SDS011;571;50.930;6.926;2023-05-24T05:12:40;10.33;;;3.83;;
1164;SDS011;571;50.930;6.926;2023-05-24T05:15:29;20.23;;;5.37;;
1164;SDS011;571;50.930;6.926;2023-05-24T05:18:19;9.17;;;4.10;;
1164;SDS011;571;50.930;6.926;2023-05-24T05:21:25;11.07;;;4.23;;
1164;SDS011;571;50.930;6.926;2023-05-24T05:24:00;21.47;;;5.20;;
1164;SDS011;571;50.930;6.926;2023-05-24T05:30:17;12.90;;;5.57;;
1164;SDS011;571;50.930;6.926;2023-05-24T05:39:18;14.73;;;4.80;;
1164;SDS011;571;50.930;6.926;2023-05-24T05:41:59;12.17;;;5.30;;
1164;SDS011;571;50.930;6.926;2023-05-24T05:44:36;18.87;;;5.17;;
1164;SDS011;571;50.930;6.926;2023-05-24T05:47:41;8.83;;;4.87;;
1164;SDS011;571;50.930;6.926;2023-05-24T05:50:31;10.97;;;5.17;;
1164;SDS011;571;50.930;6.926;2023-05-24T05:53:32;13.67;;;5.07;;
1164;SDS011;571;50.930;6.926;2023-05-24T06:02:01;14.40;;;7.50;;
1164;SDS011;571;50.930;6.926;2023-05-24T06:08:03;17.63;;;6.93;;
1164;SDS011;571;50.930;6.926;2023-05-24T06:11:28;13.33;;;5.77;;
1164;SDS011;571;50.930;6.926;2023-05-24T06:14:27;17.23;;;5.73;;
1164;SDS011;571;50.930;6.926;2023-05-24T06:29:53;13.87;;;4.90;;
1164;SDS011;571;50.930;6.926;2023-05-24T06:32:52;15.67;;;6.17;;
1164;SDS011;571;50.930;6.926;2023-05-24T06:35:55;13.80;;;5.47;;
1164;SDS011;571;50.930;6.926;2023-05-24T06:38:40;9.63;;;5.60;;
1164;SDS011;571;50.930;6.926;2023-05-24T06:41:24;15.67;;;7.00;;
1164;SDS011;571;50.930;6.926;2023-05-24T06:44:22;15.10;;;6.67;;
1164;SDS011;571;50.930;6.926;2023-05-24T06:50:11;12.73;;;5.43;;
1164;SDS011;571;50.930;6.926;2023-05-24T06:53:35;17.13;;;4.97;;
1164;SDS011;571;50.930;6.926;2023-05-24T06:56:11;12.97;;;5.50;;
1164;SDS011;571;50.930;6.926;2023-05-24T06:59:21;15.20;;;5.80;;
1164;SDS011;571;50.930;6.926;2023-05-24T07:02:25;11.60;;;4.90;;
1164;SDS011;571;50.930;6.926;2023-05-24T07:05:23;17.70;;;6.50;;
1164;SDS011;571;50.930;6.926;2023-05-24T07:35:36;8.33;;;4.73;;
1164;SDS011;571;50.930;6.926;2023-05-24T07:45:39;14.87;;;4.83;;
1164;SDS011;571;50.930;6.926;2023-05-24T07:49:13;9.70;;;4.23;;
1164;SDS011;571;50.930;6.926;2023-05-24T08:16:25;10.50;;;4.00;;
1164;SDS011;571;50.930;6.926;2023-05-24T08:30:14;10.83;;;5.67;;
1164;SDS011;571;50.930;6.926;2023-05-24T08:36:40;17.40;;;7.77;;
1164;SDS011;571;50.930;6.926;2023-05-24T09:11:38;12.07;;;4.50;;
1164;SDS011;571;50.930;6.926;2023-05-24T09:15:13;12.33;;;6.00;;
1164;SDS011;571;50.930;6.926;2023-05-24T09:18:25;12.27;;;6.10;;
1164;SDS011;571;50.930;6.926;2023-05-24T09:21:09;17.00;;;6.40;;
1164;SDS011;571;50.930;6.926;2023-05-24T09:54:16;19.47;;;11.20;;
1164;SDS011;571;50.930;6.926;2023-05-24T10:05:36;16.43;;;12.60;;
1164;SDS011;571;50.930;6.926;2023-05-24T10:34:22;17.70;;;11.70;;
1164;SDS011;571;50.930;6.926;2023-05-24T11:36:19;11.40;;;9.63;;
1164;SDS011;571;50.930;6.926;2023-05-24T11:39:53;11.97;;;7.50;;
1164;SDS011;571;50.930;6.926;2023-05-24T11:46:44;13.23;;;8.67;;
1164;SDS011;571;50.930;6.926;2023-05-24T11:49:48;15.87;;;7.77;;
1164;SDS011;571;50.930;6.926;2023-05-24T11:55:58;14.03;;;7.50;;
1164;SDS011;571;50.930;6.926;2023-05-24T11:58:58;8.33;;;7.00;;
1164;SDS011;571;50.930;6.926;2023-05-24T12:01:34;8.63;;;6.60;;
1164;SDS011;571;50.930;6.926;2023-05-24T15:07:31;8.40;;;4.23;;
1164;SDS011;571;50.930;6.926;2023-05-24T15:10:03;7.00;;;4.00;;
1164;SDS011;571;50.930;6.926;2023-05-24T15:12:30;9.40;;;4.90;;
1164;SDS011;571;50.930;6.926;2023-05-24T15:15:05;8.73;;;4.70;;
1164;SDS011;571;50.930;6.926;2023-05-24T15:17:36;7.17;;;4.07;;
1164;SDS011;571;50.930;6.926;2023-05-24T15:20:07;10.47;;;4.70;;
1164;SDS011;571;50.930;6.926;2023-05-24T15:22:41;11.93;;;4.33;;
1164;SDS011;571;50.930;6.926;2023-05-24T15:25:33;7.70;;;3.63;;
1164;SDS011;571;50.930;6.926;2023-05-24T15:28:07;6.77;;;4.60;;
1164;SDS011;571;50.930;6.926;2023-05-24T15:30:36;9.53;;;4.60;;
1164;SDS011;571;50.930;6.926;2023-05-24T15:33:11;7.70;;;4.67;;
1164;SDS011;571;50.930;6.926;2023-05-24T15:35:43;8.33;;;4.30;;
1164;SDS011;571;50.930;6.926;2023-05-24T15:38:11;6.80;;;3.63;;
1164;SDS011;571;50.930;6.926;2023-05-24T15:40:46;6.40;;;4.03;;
1164;SDS011;571;50.930;6.926;2023-05-24T17:08:18;8.97;;;5.93;;
1164;SDS011;571;50.930;6.926;2023-05-24T17:17:07;11.80;;;6.13;;
1164;SDS011;571;50.930;6.926;2023-05-24T17:19:34;10.10;;;5.80;;
1164;SDS011;571;50.930;6.926;2023-05-24T17:22:10;17.47;;;6.00;;
1164;SDS011;571;50.930;6.926;2023-05-24T17:24:39;9.13;;;5.77;;
1164;SDS011;571;50.930;6.926;2023-05-24T17:27:05;11.07;;;6.40;;
1164;SDS011;571;50.930;6.926;2023-05-24T17:29:32;11.80;;;6.80;;
1164;SDS011;571;50.930;6.926;2023-05-24T17:31:59;15.47;;;6.10;;
1164;SDS011;571;50.930;6.926;2023-05-24T17:34:29;12.33;;;6.33;;
1164;SDS011;571;50.930;6.926;2023-05-24T17:37:00;15.17;;;5.97;;
1164;SDS011;571;50.930;6.926;2023-05-24T17:39:27;9.47;;;6.00;;
1164;SDS011;571;50.930;6.926;2023-05-24T17:41:55;8.07;;;4.83;;
1164;SDS011;571;50.930;6.926;2023-05-24T17:44:25;10.80;;;6.47;;
1164;SDS011;571;50.930;6.926;2023-05-24T17:46:52;17.00;;;6.77;;
1164;SDS011;571;50.930;6.926;2023-05-24T17:49:26;11.70;;;5.90;;
1164;SDS011;571;50.930;6.926;2023-05-24T17:51:56;9.60;;;5.33;;
1164;SDS011;571;50.930;6.926;2023-05-24T17:54:30;10.20;;;5.20;;
1164;SDS011;571;50.930;6.926;2023-05-24T17:56:58;10.67;;;5.60;;
1164;SDS011;571;50.930;6.926;2023-05-24T17:59:26;12.37;;;5.57;;
1164;SDS011;571;50.930;6.926;2023-05-24T18:01:53;14.50;;;4.97;;
1164;SDS011;571;50.930;6.926;2023-05-24T18:04:20;10.03;;;5.13;;
1164;SDS011;571;50.930;6.926;2023-05-24T18:06:47;11.57;;;5.30;;
1164;SDS011;571;50.930;6.926;2023-05-24T18:09:16;14.63;;;6.00;;
1164;SDS011;571;50.930;6.926;2023-05-24T18:11:43;13.00;;;5.20;;
1164;SDS011;571;50.930;6.926;2023-05-24T18:14:11;11.47;;;5.30;;
1164;SDS011;571;50.930;6.926;2023-05-24T18:16:38;13.27;;;5.43;;
1164;SDS011;571;50.930;6.926;2023-05-24T18:19:05;8.70;;;5.07;;
1164;SDS011;571;50.930;6.926;2023-05-24T18:21:32;13.13;;;5.23;;
1164;SDS011;571;50.930;6.926;2023-05-24T18:23:58;10.53;;;4.60;;
1164;SDS011;571;50.930;6.926;2023-05-24T18:26:25;5.43;;;4.53;;
1164;SDS011;571;50.930;6.926;2023-05-24T18:28:54;6.63;;;3.93;;
1164;SDS011;571;50.930;6.926;2023-05-24T18:31:22;11.83;;;5.47;;
1164;SDS011;571;50.930;6.926;2023-05-24T18:33:53;11.33;;;4.90;;
1164;SDS011;571;50.930;6.926;2023-05-24T18:36:19;9.63;;;4.37;;
1164;SDS011;571;50.930;6.926;2023-05-24T18:38:46;7.93;;;4.50;;
1164;SDS011;571;50.930;6.926;2023-05-24T18:41:13;10.20;;;4.70;;
1164;SDS011;571;50.930;6.926;2023-05-24T18:43:42;9.40;;;4.50;;
1164;SDS011;571;50.930;6.926;2023-05-24T18:46:09;8.80;;;4.57;;
1164;SDS011;571;50.930;6.926;2023-05-24T18:48:42;10.03;;;4.40;;
1164;SDS011;571;50.930;6.926;2023-05-24T18:51:14;10.27;;;4.17;;
1164;SDS011;571;50.930;6.926;2023-05-24T18:53:43;8.07;;;4.33;;
1164;SDS011;571;50.930;6.926;2023-05-24T18:56:13;6.27;;;4.43;;
1164;SDS011;571;50.930;6.926;2023-05-24T18:58:40;12.00;;;4.83;;
1164;SDS011;571;50.930;6.926;2023-05-24T19:01:16;9.97;;;4.50;;
1164;SDS011;571;50.930;6.926;2023-05-24T19:03:46;9.30;;;4.57;;
1164;SDS011;571;50.930;6.926;2023-05-24T19:06:14;14.30;;;4.83;;
1164;SDS011;571;50.930;6.926;2023-05-24T19:08:41;7.50;;;4.23;;
1164;SDS011;571;50.930;6.926;2023-05-24T19:11:11;13.13;;;6.30;;
1164;SDS011;571;50.930;6.926;2023-05-24T19:13:38;14.47;;;5.70;;
1164;SDS011;571;50.930;6.926;2023-05-24T19:16:05;11.00;;;5.53;;
1164;SDS011;571;50.930;6.926;2023-05-24T19:18:31;12.43;;;5.30;;
1164;SDS011;571;50.930;6.926;2023-05-24T19:21:07;9.67;;;5.43;;
1164;SDS011;571;50.930;6.926;2023-05-24T19:23:38;8.17;;;4.90;;
1164;SDS011;571;50.930;6.926;2023-05-24T19:26:11;10.60;;;5.23;;
1164;SDS011;571;50.930;6.926;2023-05-24T19:28:42;15.53;;;5.47;;
1164;SDS011;571;50.930;6.926;2023-05-24T19:31:14;10.10;;;6.30;;
1164;SDS011;571;50.930;6.926;2023-05-24T19:33:43;9.37;;;6.23;;
1164;SDS011;571;50.930;6.926;2023-05-24T19:36:14;15.17;;;7.23;;
1164;SDS011;571;50.930;6.926;2023-05-24T19:38:41;8.60;;;6.07;;
1164;SDS011;571;50.930;6.926;2023-05-24T19:41:08;9.60;;;5.50;;
1164;SDS011;571;50.930;6.926;2023-05-24T19:43:37;7.97;;;4.73;;
1164;SDS011;571;50.930;6.926;2023-05-24T19:46:04;8.00;;;5.70;;
1164;SDS011;571;50.930;6.926;2023-05-24T19:48:31;6.67;;;5.67;;
1164;SDS011;571;50.930;6.926;2023-05-24T19:50:58;10.93;;;6.80;;
1164;SDS011;571;50.930;6.926;2023-05-24T19:53:27;10.57;;;6.07;;
1164;SDS011;571;50.930;6.926;2023-05-24T19:55:56;10.30;;;6.33;;
1164;SDS011;571;50.930;6.926;2023-05-24T19:58:23;13.00;;;6.20;;
1164;SDS011;571;50.930;6.926;2023-05-24T20:00:50;13.30;;;7.10;;
1164;SDS011;571;50.930;6.926;2023-05-24T20:03:17;11.97;;;7.00;;
1164;SDS011;571;50.930;6.926;2023-05-24T20:05:44;17.33;;;6.20;;
1164;SDS011;571;50.930;6.926;2023-05-24T20:08:10;11.77;;;6.13;;
1164;SDS011;571;50.930;6.926;2023-05-24T20:10:38;7.50;;;5.70;;
1164;SDS011;571;50.930;6.926;2023-05-24T20:13:05;11.73;;;5.40;;
1164;SDS011;571;50.930;6.926;2023-05-24T20:15:32;8.47;;;5.93;;
1164;SDS011;571;50.930;6.926;2023-05-24T20:17:59;10.37;;;6.37;;
1164;SDS011;571;50.930;6.926;2023-05-24T20:20:26;12.70;;;6.20;;
1164;SDS011;571;50.930;6.926;2023-05-24T20:22:52;9.13;;;7.07;;
1164;SDS011;571;50.930;6.926;2023-05-24T20:25:19;14.07;;;6.77;;
1164;SDS011;571;50.930;6.926;2023-05-24T20:27:47;8.83;;;6.17;;
1164;SDS011;571;50.930;6.926;2023-05-24T20:30:14;8.27;;;5.80;;
1164;SDS011;571;50.930;6.926;2023-05-24T20:32:42;13.17;;;6.67;;
1164;SDS011;571;50.930;6.926;2023-05-24T20:35:10;12.90;;;6.90;;
1164;SDS011;571;50.930;6.926;2023-05-24T20:37:37;13.37;;;6.20;;
1164;SDS011;571;50.930;6.926;2023-05-24T20:40:04;10.27;;;6.20;;
1164;SDS011;571;50.930;6.926;2023-05-24T20:42:32;10.67;;;6.73;;
1164;SDS011;571;50.930;6.926;2023-05-24T20:45:00;11.67;;;6.07;;
1164;SDS011;571;50.930;6.926;2023-05-24T20:47:28;14.00;;;7.53;;
1164;SDS011;571;50.930;6.926;2023-05-24T20:49:54;8.90;;;6.50;;
1164;SDS011;571;50.930;6.926;2023-05-24T20:52:21;14.50;;;8.13;;
1164;SDS011;571;50.930;6.926;2023-05-24T20:54:48;9.03;;;7.43;;
1164;SDS011;571;50.930;6.926;2023-05-24T20:57:15;10.57;;;6.97;;
1164;SDS011;571;50.930;6.926;2023-05-24T20:59:41;17.30;;;9.13;;
1164;SDS011;571;50.930;6.926;2023-05-24T21:02:09;17.00;;;7.80;;
1164;SDS011;571;50.930;6.926;2023-05-24T21:04:36;12.73;;;6.80;;
1164;SDS011;571;50.930;6.926;2023-05-24T21:07:03;10.00;;;6.60;;
1164;SDS011;571;50.930;6.926;2023-05-24T21:09:30;16.20;;;7.17;;
1164;SDS011;571;50.930;6.926;2023-05-24T21:11:56;12.93;;;6.30;;
1164;SDS011;571;50.930;6.926;2023-05-24T21:14:23;14.03;;;7.53;;
1164;SDS011;571;50.930;6.926;2023-05-24T21:16:50;13.60;;;6.70;;
1164;SDS011;571;50.930;6.926;2023-05-24T21:19:18;15.13;;;7.30;;
1164;SDS011;571;50.930;6.926;2023-05-24T21:21:45;14.00;;;7.23;;
1164;SDS011;571;50.930;6.926;2023-05-24T21:24:12;12.40;;;7.47;;
1164;SDS011;571;50.930;6.926;2023-05-24T21:26:39;12.60;;;6.67;;
1164;SDS011;571;50.930;6.926;2023-05-24T21:29:08;9.30;;;6.60;;
1164;SDS011;571;50.930;6.926;2023-05-24T21:31:35;10.30;;;6.53;;
1164;SDS011;571;50.930;6.926;2023-05-24T21:34:02;10.93;;;7.13;;
1164;SDS011;571;50.930;6.926;2023-05-24T21:36:33;10.53;;;7.03;;
1164;SDS011;571;50.930;6.926;2023-05-24T21:39:01;12.33;;;6.93;;
1164;SDS011;571;50.930;6.926;2023-05-24T21:41:31;14.23;;;9.00;;
1164;SDS011;571;50.930;6.926;2023-05-24T21:43:58;11.10;;;7.20;;
1164;SDS011;571;50.930;6.926;2023-05-24T21:46:25;19.47;;;8.10;;
1164;SDS011;571;50.930;6.926;2023-05-24T21:48:53;13.43;;;7.07;;
1164;SDS011;571;50.930;6.926;2023-05-24T21:51:21;10.33;;;6.57;;
1164;SDS011;571;50.930;6.926;2023-05-24T21:53:49;11.47;;;6.10;;
1164;SDS011;571;50.930;6.926;2023-05-24T21:56:15;10.23;;;6.90;;
1164;SDS011;571;50.930;6.926;2023-05-24T21:58:42;9.93;;;6.20;;
1164;SDS011;571;50.930;6.926;2023-05-24T22:43:54;15.53;;;7.30;;
1164;SDS011;571;50.930;6.926;2023-05-24T22:53:18;11.57;;;6.83;;
1164;SDS011;571;50.930;6.926;2023-05-24T22:56:04;13.20;;;6.47;;
1164;SDS011;571;50.930;6.926;2023-05-24T23:23:05;9.70;;;6.30;;
1164;SDS011;571;50.930;6.926;2023-05-24T23:33:03;10.10;;;5.37;;
1164;SDS011;571;50.930;6.926;2023-05-24T23:38:47;10.93;;;6.43;;
